Terminal Aerodrome Forecast
Issued by NWS

Home | Current Version | Previous Version | Text Only | Print | Product List | Glossary On
Versions: 1 2 3 4 5 6 7 8 9 10 11 12 13 14 15 16 17 18 19 20 21
355
FTUS43 KLSX 282339
TAFSUS
TAF
KSUS 282339Z 2900/2924 30006KT P6SM SCT040 BKN250
     FM290300 VRB03KT P6SM SCT120 BKN250
     FM291600 06006KT P6SM BKN120
     FM292100 11009KT P6SM VCSH BKN050=

USA.gov is the U.S. government's official web portal to all federal, state and local government web resources and services.